KEZF

Shannon Airport

Fredericksburg, Virginia, USA
METAR KEZF 242055Z AUTO 05007KT 10SM BKN009 OVC015 20/20 A3027 RMK AO2 T01950195
Observed Flight Rules
Sep-24 @ 20:55 UTC (33 minutes ago) Instrument Flight Rules
Wind Visibility Clouds
50° at 7 knots 10 miles
  • Broken at 900' AGL
  • Overcast at 1,500' AGL
Temperatures Readings
Current 20°C / 68°F
Dewpoint 20°C / 68°F
Humidity 100%
Altimeter 30.27" Hg
Pressure 1025 hPa
Elevation 26
METAR KEZF 242055Z AUTO 05007KT 10SM BKN009 OVC015 20/20 A3027 RMK AO2 T01950195
Observed Flight Rules
Sep-24 @ 20:55 UTC
(33 minutes ago)
IFR
Wind Visibility
50° at 7 knots 10 miles
Clouds
  • Broken at 900' AGL
  • Overcast at 1,500' AGL
Temperature Dewpoint
20°C / 68°F 20°C / 68°F
Humidity Altimeter Pressure
100% 30.27" Hg 1025 hPa